Time;durP1;ratioP1;P1;durP2;ratioP2;P2;SDS_P1;SDS_P2;PMS_P1;PMS_P2;Temp;Humidity;BMP_temperature;BMP_pressure;BME280_temperature;BME280_humidity;BME280_pressure;Samples;Min_cycle;Max_cycle;Signal;HPM_P1;HPM_P2
2023/08/01 00:03:17;;;;;;;3.80;3.10;;;22.40;38.60;;;;;;10458906;28;20221;-73
2023/08/01 00:08:22;;;;;;;3.67;3.37;;;22.30;38.60;;;;;;10454489;28;20232;-73
2023/08/01 00:13:25;;;;;;;4.27;3.40;;;22.30;38.80;;;;;;10458197;28;20232;-73
2023/08/01 00:18:29;;;;;;;4.33;3.00;;;22.20;38.40;;;;;;10454512;28;20231;-73
2023/08/01 00:23:33;;;;;;;3.93;3.00;;;22.20;38.40;;;;;;10461093;28;20226;-73
2023/08/01 00:28:36;;;;;;;3.60;3.30;;;22.10;39.30;;;;;;10455091;28;20286;-73
2023/08/01 00:33:39;;;;;;;3.20;2.90;;;22.10;38.80;;;;;;10456656;28;20693;-73
2023/08/01 00:38:44;;;;;;;3.83;3.20;;;22.00;38.80;;;;;;10455305;28;20786;-73
2023/08/01 00:43:47;;;;;;;5.27;3.40;;;22.00;39.60;;;;;;10463716;28;20324;-73
2023/08/01 00:48:50;;;;;;;3.47;3.07;;;22.00;39.40;;;;;;10457112;28;20228;-73
2023/08/01 00:53:55;;;;;;;3.33;3.03;;;22.00;39.30;;;;;;10465824;28;20220;-73
2023/08/01 00:58:58;;;;;;;3.67;3.37;;;21.90;40.00;;;;;;10460290;28;20672;-73
2023/08/01 01:04:02;;;;;;;3.50;3.17;;;21.90;39.50;;;;;;10462642;28;20232;-73
2023/08/01 01:09:17;;;;;;;3.40;3.10;;;21.80;39.60;;;;;;10464833;28;20228;-73
2023/08/01 01:14:20;;;;;;;6.07;3.30;;;21.70;41.70;;;;;;10464023;28;20231;-73
2023/08/01 01:19:23;;;;;;;3.13;2.93;;;21.70;40.00;;;;;;10463058;28;20233;-73
2023/08/01 01:24:28;;;;;;;4.77;3.27;;;21.60;40.00;;;;;;10466240;28;20228;-73
2023/08/01 01:29:34;;;;;;;3.90;3.60;;;21.60;40.50;;;;;;10462586;28;20228;-73
2023/08/01 01:34:37;;;;;;;3.50;3.20;;;21.60;40.50;;;;;;10465260;28;21039;-73
2023/08/01 01:39:42;;;;;;;3.90;3.50;;;21.60;39.80;;;;;;10463880;28;20253;-73
2023/08/01 01:44:46;;;;;;;3.23;2.80;;;21.50;40.00;;;;;;10460946;28;20240;-73
2023/08/01 01:49:49;;;;;;;3.50;2.90;;;21.50;39.60;;;;;;10458531;28;20227;-73
2023/08/01 01:54:54;;;;;;;4.67;3.10;;;21.40;39.70;;;;;;10463503;28;20228;-73
2023/08/01 01:59:57;;;;;;;3.33;3.03;;;21.40;40.10;;;;;;10459921;28;20284;-73
2023/08/01 02:05:00;;;;;;;3.80;3.10;;;21.40;40.00;;;;;;10463902;28;20619;-72
2023/08/01 02:10:06;;;;;;;3.40;3.10;;;21.40;40.00;;;;;;10456576;28;20232;-73
2023/08/01 02:15:10;;;;;;;3.40;3.10;;;21.30;40.40;;;;;;10460889;28;20312;-73
2023/08/01 02:20:13;;;;;;;3.50;3.20;;;21.40;40.30;;;;;;10458855;28;20221;-73
2023/08/01 02:25:17;;;;;;;3.77;3.30;;;21.30;40.10;;;;;;10461934;28;20283;-73
2023/08/01 02:30:21;;;;;;;5.73;3.00;;;21.30;40.60;;;;;;10464166;28;20227;-73
2023/08/01 02:35:24;;;;;;;4.10;3.20;;;21.30;40.30;;;;;;10459129;28;20232;-73
2023/08/01 02:40:32;;;;;;;4.03;3.27;;;21.20;40.30;;;;;;10462303;28;20912;-73
2023/08/01 02:45:35;;;;;;;3.37;2.77;;;21.30;41.10;;;;;;10464656;28;20232;-73
2023/08/01 02:50:38;;;;;;;4.50;2.93;;;21.30;40.30;;;;;;10458041;28;20288;-73
2023/08/01 02:55:45;;;;;;;3.43;2.60;;;21.30;40.30;;;;;;10464468;28;20310;-74
2023/08/01 03:00:48;;;;;;;3.37;3.07;;;21.30;40.80;;;;;;10458264;28;20315;-73
2023/08/01 03:05:52;;;;;;;3.07;2.73;;;21.30;40.30;;;;;;10463549;28;20237;-73
2023/08/01 03:10:57;;;;;;;3.33;3.03;;;21.20;40.00;;;;;;10449182;28;20319;-73
2023/08/01 03:16:00;;;;;;;3.43;3.13;;;21.20;40.40;;;;;;10453361;28;20247;-74
2023/08/01 03:21:04;;;;;;;3.63;3.23;;;21.30;40.10;;;;;;10457583;28;20217;-73
2023/08/01 03:26:08;;;;;;;3.97;2.97;;;21.30;40.10;;;;;;10457806;28;20497;-73
2023/08/01 03:31:12;;;;;;;5.30;2.90;;;21.30;40.40;;;;;;10458238;28;20227;-73
2023/08/01 03:36:16;;;;;;;3.33;2.90;;;21.30;40.10;;;;;;10457113;28;20225;-72
2023/08/01 03:41:21;;;;;;;3.93;3.50;;;21.30;40.30;;;;;;10457891;28;20227;-72
2023/08/01 03:46:24;;;;;;;3.73;3.33;;;21.40;41.00;;;;;;10453027;28;20228;-72
2023/08/01 03:51:27;;;;;;;4.03;3.30;;;21.30;40.80;;;;;;10459374;28;20236;-73
2023/08/01 03:56:32;;;;;;;3.70;3.40;;;21.20;40.80;;;;;;10454929;28;20232;-73
2023/08/01 04:01:35;;;;;;;4.30;3.87;;;21.10;41.20;;;;;;10455176;28;20235;-73
2023/08/01 04:06:38;;;;;;;3.73;3.33;;;21.00;40.90;;;;;;10458287;28;20232;-73
2023/08/01 04:11:43;;;;;;;4.07;3.67;;;20.90;41.20;;;;;;10456905;28;20636;-72
2023/08/01 04:16:46;;;;;;;4.10;3.70;;;20.70;42.00;;;;;;10459173;28;20235;-73
2023/08/01 04:21:49;;;;;;;3.73;3.43;;;20.60;41.60;;;;;;10455174;28;20244;-73
2023/08/01 04:26:54;;;;;;;4.07;3.47;;;20.50;42.00;;;;;;10467506;28;20227;-73
2023/08/01 04:31:57;;;;;;;3.93;3.63;;;20.40;42.80;;;;;;10459434;28;20760;-72
2023/08/01 04:37:00;;;;;;;3.83;3.37;;;20.30;42.30;;;;;;10462376;28;20232;-73
2023/08/01 04:42:06;;;;;;;4.17;3.53;;;20.20;42.60;;;;;;10465349;28;20244;-73
2023/08/01 04:47:09;;;;;;;3.53;3.23;;;20.00;43.80;;;;;;10465392;28;20701;-73
2023/08/01 04:52:12;;;;;;;3.87;3.43;;;20.00;43.30;;;;;;10467776;28;20232;-73
2023/08/01 04:57:17;;;;;;;5.33;3.90;;;19.90;43.50;;;;;;10462050;28;20349;-73
2023/08/01 05:02:20;;;;;;;3.93;3.40;;;19.90;44.60;;;;;;10462000;28;20234;-73
2023/08/01 05:07:23;;;;;;;3.80;3.50;;;19.90;44.10;;;;;;10456495;28;20232;-73
2023/08/01 05:12:30;;;;;;;3.70;3.40;;;19.90;44.00;;;;;;10463229;28;20228;-73
2023/08/01 05:17:34;;;;;;;4.57;4.17;;;19.90;44.60;;;;;;10461026;28;20759;-73
2023/08/01 05:22:37;;;;;;;5.20;3.80;;;19.90;44.20;;;;;;10456857;28;20294;-74
2023/08/01 05:27:41;;;;;;;4.73;4.30;;;19.90;44.20;;;;;;10458199;28;20239;-73
2023/08/01 05:32:45;;;;;;;4.80;4.17;;;19.90;45.10;;;;;;10455718;28;20290;-73
2023/08/01 05:37:48;;;;;;;4.67;4.17;;;19.90;44.50;;;;;;10459231;28;20688;-72
2023/08/01 05:42:53;;;;;;;4.10;3.80;;;20.00;44.70;;;;;;10461713;28;20216;-73
2023/08/01 05:47:56;;;;;;;5.47;4.20;;;20.00;45.60;;;;;;10460092;28;20236;-73
2023/08/01 05:53:00;;;;;;;3.57;3.27;;;20.00;45.00;;;;;;10467586;28;20267;-73
2023/08/01 05:58:04;;;;;;;4.83;3.87;;;20.10;45.20;;;;;;10459956;28;20599;-73
2023/08/01 06:03:07;;;;;;;4.63;3.80;;;20.10;46.00;;;;;;10462832;28;20228;-74
2023/08/01 06:08:12;;;;;;;4.47;3.43;;;20.20;45.40;;;;;;10460295;28;21052;-74
2023/08/01 06:13:16;;;;;;;7.03;3.53;;;20.20;45.50;;;;;;10459376;28;20228;-74
2023/08/01 06:24:42;;;;;;;3.83;3.50;;;20.40;47.40;;;;;;10428578;28;20303;-76
2023/08/01 06:29:55;;;;;;;4.30;3.73;;;20.40;46.20;;;;;;10452906;28;20793;-76
2023/08/01 06:35:03;;;;;;;4.13;3.73;;;20.50;47.20;;;;;;10440883;28;20233;-76
2023/08/01 06:45:39;;;;;;;3.93;3.63;;;20.40;46.70;;;;;;10456866;28;20239;-76
2023/08/01 06:50:59;;;;;;;4.53;3.83;;;20.40;47.20;;;;;;10445761;28;20224;-76
2023/08/01 06:56:13;;;;;;;5.07;3.90;;;20.40;46.10;;;;;;10449724;28;20239;-76
2023/08/01 07:01:40;;;;;;;5.73;3.60;;;20.40;46.10;;;;;;10444533;28;20610;-76
2023/08/01 07:06:59;;;;;;;4.53;3.80;;;20.60;47.20;;;;;;10451858;28;20233;-75
2023/08/01 07:12:09;;;;;;;5.53;4.03;;;20.70;47.00;;;;;;10445374;28;20770;-76
2023/08/01 07:17:26;;;;;;;4.37;3.80;;;20.70;46.10;;;;;;10452570;28;20260;-75
2023/08/01 07:22:35;;;;;;;4.13;3.73;;;20.90;46.80;;;;;;10458922;28;20224;-75
2023/08/01 07:27:44;;;;;;;5.07;3.70;;;21.10;46.10;;;;;;10451513;28;20237;-76
2023/08/01 07:32:51;;;;;;;4.17;3.60;;;21.20;46.60;;;;;;10445075;28;20328;-76
2023/08/01 07:38:01;;;;;;;3.97;3.67;;;21.40;46.10;;;;;;10445837;28;20251;-75
2023/08/01 07:43:23;;;;;;;4.10;3.80;;;21.60;45.20;;;;;;10454764;28;20225;-76
2023/08/01 07:48:40;;;;;;;3.83;3.53;;;21.70;45.10;;;;;;10421832;28;20267;-75
2023/08/01 07:54:08;;;;;;;;;;;;;;;;;;;;;
2023/08/01 08:06:00;;;;;;;3.93;3.47;;;22.30;44.10;;;;;;10455702;28;20789;-76
2023/08/01 10:11:29;;;;;;;3.93;3.50;;;21.70;42.20;;;;;;10331552;28;20231;-75
2023/08/01 10:17:01;;;;;;;4.07;3.37;;;21.50;42.90;;;;;;10361562;28;20239;-75
2023/08/01 11:39:47;;;;;;;2.77;2.57;;;21.50;45.30;;;;;;10078459;29;20249;-75
2023/08/01 11:57:13;;;;;;;3.43;2.80;;;21.60;44.60;;;;;;10182478;22;20260;-75
2023/08/01 12:02:38;;;;;;;2.33;2.13;;;21.60;45.40;;;;;;10289427;28;20275;-75
2023/08/01 12:07:52;;;;;;;2.63;2.43;;;21.60;45.10;;;;;;10361909;28;20261;-75
2023/08/01 12:19:53;;;;;;;2.33;2.13;;;21.60;45.40;;;;;;10313764;28;20236;-75
2023/08/01 12:30:24;;;;;;;2.30;2.10;;;21.50;45.30;;;;;;10262508;28;20228;-72
2023/08/01 12:35:28;;;;;;;2.40;2.20;;;21.50;45.00;;;;;;10274559;28;20235;-73
2023/08/01 12:40:31;;;;;;;2.27;2.13;;;21.40;45.80;;;;;;10268466;28;20231;-72
2023/08/01 12:45:35;;;;;;;2.67;2.13;;;21.30;45.50;;;;;;10267348;28;20734;-73
2023/08/01 12:50:39;;;;;;;2.00;1.90;;;21.20;45.80;;;;;;10275625;28;20235;-73
2023/08/01 12:55:44;;;;;;;1.90;1.70;;;21.20;46.20;;;;;;10264109;28;20237;-74
2023/08/01 13:00:47;;;;;;;2.00;1.90;;;21.10;46.50;;;;;;10275832;28;20960;-74
2023/08/01 13:05:52;;;;;;;2.30;2.10;;;21.20;46.50;;;;;;10284611;28;20255;-74
2023/08/01 13:10:56;;;;;;;2.10;1.80;;;21.30;46.90;;;;;;10271569;28;20240;-74
2023/08/01 13:15:59;;;;;;;1.77;1.67;;;21.40;46.30;;;;;;10279209;28;20239;-74
2023/08/01 13:21:03;;;;;;;1.80;1.60;;;21.40;45.70;;;;;;10275569;28;20231;-74
2023/08/01 13:26:07;;;;;;;2.17;1.70;;;21.50;47.00;;;;;;10268460;28;20295;-74
2023/08/01 13:31:10;;;;;;;1.90;1.80;;;21.50;46.20;;;;;;10265865;28;20244;-74
2023/08/01 13:36:14;;;;;;;1.67;1.50;;;21.50;45.90;;;;;;10282176;28;20267;-74
2023/08/01 13:41:18;;;;;;;1.50;1.40;;;21.70;46.00;;;;;;10261928;28;20239;-74
2023/08/01 13:46:21;;;;;;;1.43;1.33;;;21.80;45.50;;;;;;10276401;28;20242;-74
2023/08/01 13:51:34;;;;;;;1.00;1.00;;;22.00;45.80;;;;;;10277748;28;20321;-75
2023/08/01 13:56:37;;;;;;;1.73;1.40;;;22.20;45.50;;;;;;10268136;28;20319;-75
2023/08/01 14:01:41;;;;;;;1.53;1.17;;;22.40;45.60;;;;;;10273359;28;20230;-75
2023/08/01 14:06:46;;;;;;;1.27;1.27;;;22.50;45.00;;;;;;10284140;28;20712;-75
2023/08/01 14:11:49;;;;;;;1.50;1.40;;;22.70;44.50;;;;;;10273971;28;20647;-75
2023/08/01 14:16:53;;;;;;;1.67;1.47;;;22.80;44.60;;;;;;10274055;28;20697;-74
2023/08/01 14:21:58;;;;;;;1.57;1.40;;;23.00;44.30;;;;;;10276404;28;20238;-75
2023/08/01 14:27:01;;;;;;;1.50;1.40;;;23.20;44.00;;;;;;10276929;28;20250;-74
2023/08/01 14:32:05;;;;;;;1.67;1.57;;;23.20;43.70;;;;;;10263389;28;20346;-74
2023/08/01 14:37:10;;;;;;;1.70;1.30;;;23.40;43.40;;;;;;10273211;28;20242;-74
2023/08/01 14:42:13;;;;;;;1.67;1.40;;;23.60;42.90;;;;;;10272811;28;20319;-74
2023/08/01 14:47:16;;;;;;;1.53;1.40;;;23.70;42.40;;;;;;10269063;28;20323;-74
2023/08/01 14:52:20;;;;;;;1.50;1.40;;;23.80;42.40;;;;;;10265413;28;20243;-75
2023/08/01 14:57:32;;;;;;;1.50;1.40;;;23.90;42.10;;;;;;10265031;28;20259;-74
2023/08/01 15:02:35;;;;;;;1.50;1.40;;;24.10;42.20;;;;;;10263397;28;20262;-74
2023/08/01 15:07:39;;;;;;;1.70;1.60;;;24.20;42.00;;;;;;10273273;28;20310;-73
2023/08/01 15:12:43;;;;;;;1.50;1.40;;;24.30;41.30;;;;;;10272085;28;20239;-74
2023/08/01 15:17:46;;;;;;;1.30;1.20;;;24.30;41.60;;;;;;10265741;28;20244;-74
2023/08/01 15:22:50;;;;;;;1.50;1.40;;;24.50;40.50;;;;;;10268433;28;20232;-74
2023/08/01 15:27:54;;;;;;;1.63;1.20;;;24.50;40.50;;;;;;10272407;28;20246;-74
2023/08/01 15:32:57;;;;;;;1.20;1.10;;;24.40;40.40;;;;;;10268380;28;20716;-74
2023/08/01 15:38:01;;;;;;;1.80;1.20;;;24.50;40.50;;;;;;10261851;28;20319;-74
2023/08/01 15:43:05;;;;;;;1.23;1.23;;;24.50;39.70;;;;;;10266259;28;20230;-75
2023/08/01 15:48:08;;;;;;;1.03;1.03;;;24.60;39.80;;;;;;10263033;28;20771;-74
2023/08/01 15:53:12;;;;;;;1.20;1.10;;;24.70;39.50;;;;;;10255136;28;20616;-74
2023/08/01 15:58:15;;;;;;;1.40;1.30;;;24.80;36.50;;;;;;10259550;28;20685;-74
2023/08/01 16:03:19;;;;;;;1.13;1.13;;;24.90;36.90;;;;;;10257869;28;21005;-74
2023/08/01 16:08:24;;;;;;;1.20;1.20;;;24.90;36.50;;;;;;10266693;28;20604;-74
2023/08/01 16:13:31;;;;;;;1.10;1.10;;;25.00;35.50;;;;;;10262597;28;20314;-74
2023/08/01 16:18:34;;;;;;;2.17;1.20;;;25.10;36.20;;;;;;10259083;28;20240;-74
2023/08/01 16:23:39;;;;;;;1.17;1.00;;;25.10;35.70;;;;;;10255357;28;20228;-74
2023/08/01 16:28:42;;;;;;;1.60;1.50;;;25.10;35.20;;;;;;10257997;28;20315;-74
2023/08/01 16:33:45;;;;;;;1.50;1.20;;;25.10;35.50;;;;;;10260208;28;20246;-74
2023/08/01 16:38:50;;;;;;;2.10;1.30;;;25.20;34.80;;;;;;10261886;28;20243;-74
2023/08/01 16:43:54;;;;;;;1.20;1.20;;;25.20;33.60;;;;;;10258123;28;20251;-74
2023/08/01 16:48:58;;;;;;;1.50;1.40;;;25.10;33.80;;;;;;10263269;28;20236;-74
2023/08/01 16:54:13;;;;;;;1.50;1.40;;;25.10;33.50;;;;;;10256550;28;20236;-75
2023/08/01 16:59:18;;;;;;;2.00;1.30;;;25.00;32.60;;;;;;10255788;28;20237;-74
2023/08/01 17:04:21;;;;;;;1.30;1.10;;;24.90;33.00;;;;;;10259120;28;20247;-74
2023/08/01 17:09:26;;;;;;;1.80;1.70;;;25.00;33.10;;;;;;10252331;28;20240;-74
2023/08/01 17:14:29;;;;;;;1.43;1.33;;;25.00;31.80;;;;;;10262352;28;20236;-74
2023/08/01 17:19:32;;;;;;;1.23;1.20;;;25.00;32.40;;;;;;10254780;28;20239;-74
2023/08/01 17:24:37;;;;;;;1.50;1.40;;;25.00;32.10;;;;;;10259180;28;20240;-74
2023/08/01 17:29:40;;;;;;;1.53;1.40;;;25.00;31.50;;;;;;10261065;28;20242;-74
2023/08/01 17:34:43;;;;;;;1.60;1.50;;;25.00;32.00;;;;;;10266260;28;20242;-74
2023/08/01 17:39:48;;;;;;;1.43;1.33;;;25.00;32.00;;;;;;10268027;28;20236;-74
2023/08/01 17:44:51;;;;;;;1.37;1.27;;;25.10;31.30;;;;;;10269526;28;20240;-74
2023/08/01 17:49:54;;;;;;;1.47;1.37;;;25.00;31.80;;;;;;10266160;28;20238;-73
2023/08/01 17:54:59;;;;;;;1.20;1.20;;;25.00;31.80;;;;;;10267166;28;20257;-73
2023/08/01 18:00:04;;;;;;;1.27;1.17;;;25.00;31.20;;;;;;10264929;28;20314;-72
2023/08/01 18:05:08;;;;;;;1.30;1.20;;;25.00;31.90;;;;;;10266017;28;21149;-73
2023/08/01 18:10:12;;;;;;;2.73;1.50;;;24.90;32.20;;;;;;10261838;28;20331;-73
2023/08/01 18:15:16;;;;;;;1.33;1.23;;;24.80;31.90;;;;;;10264626;28;20339;-73
2023/08/01 18:20:19;;;;;;;1.40;1.30;;;24.70;33.20;;;;;;10268736;28;20235;-73
2023/08/01 18:25:24;;;;;;;1.50;1.40;;;24.60;32.90;;;;;;10266103;28;20235;-73
2023/08/01 18:30:29;;;;;;;1.40;1.30;;;24.50;33.50;;;;;;10264471;28;20246;-73
2023/08/01 18:35:32;;;;;;;1.90;1.40;;;24.30;34.20;;;;;;10263600;28;20319;-73
2023/08/01 18:40:36;;;;;;;1.40;1.30;;;24.20;34.60;;;;;;10262279;28;20240;-73
2023/08/01 18:45:39;;;;;;;1.40;1.30;;;24.00;35.10;;;;;;10266400;28;20759;-73
2023/08/01 18:50:43;;;;;;;1.60;1.50;;;23.90;35.40;;;;;;10265671;28;20318;-73
2023/08/01 18:55:47;;;;;;;1.57;1.47;;;23.90;35.80;;;;;;10257898;28;20597;-70
2023/08/01 19:00:50;;;;;;;1.33;1.23;;;23.80;36.20;;;;;;10262688;28;21020;-71
2023/08/01 19:05:53;;;;;;;1.50;1.40;;;23.60;36.20;;;;;;10257891;28;20586;-71
2023/08/01 19:10:58;;;;;;;1.40;1.20;;;23.30;36.40;;;;;;10272437;28;20246;-72
2023/08/01 19:16:01;;;;;;;1.60;1.50;;;23.10;37.10;;;;;;10274867;28;20235;-72
2023/08/01 19:21:05;;;;;;;1.40;1.30;;;23.00;37.30;;;;;;10278818;28;20236;-74
2023/08/01 19:26:11;;;;;;;1.13;1.13;;;22.90;38.20;;;;;;10269689;28;20235;-73
2023/08/01 19:31:14;;;;;;;1.77;1.10;;;22.80;38.00;;;;;;10272172;28;20244;-73
2023/08/01 19:36:17;;;;;;;1.30;1.20;;;22.70;37.80;;;;;;10251703;28;20272;-73
2023/08/01 19:41:22;;;;;;;1.43;1.33;;;22.60;37.90;;;;;;10261694;28;20327;-73
2023/08/01 19:46:25;;;;;;;1.30;1.23;;;22.60;38.30;;;;;;10273519;28;20239;-75
2023/08/01 19:51:28;;;;;;;2.20;1.30;;;22.40;38.00;;;;;;10261701;28;20240;-75
2023/08/01 19:56:33;;;;;;;1.03;1.03;;;22.30;38.20;;;;;;10269222;28;20723;-75
2023/08/01 20:01:36;;;;;;;1.50;1.40;;;22.20;38.40;;;;;;10266008;28;20655;-74
2023/08/01 20:06:39;;;;;;;1.27;1.20;;;22.10;38.40;;;;;;10270484;28;20242;-75
2023/08/01 20:11:45;;;;;;;1.27;1.10;;;22.00;38.30;;;;;;10279761;28;20591;-75
2023/08/01 20:16:49;;;;;;;1.13;1.10;;;21.80;38.90;;;;;;10269636;28;20238;-76
2023/08/01 20:21:52;;;;;;;1.00;1.00;;;21.70;38.80;;;;;;10269848;28;20242;-76
2023/08/01 20:26:58;;;;;;;1.00;1.00;;;21.60;39.10;;;;;;10270753;28;20591;-76
2023/08/01 20:32:01;;;;;;;1.40;1.30;;;21.40;40.00;;;;;;10272440;28;20242;-76
2023/08/01 20:37:05;;;;;;;1.13;1.13;;;21.30;39.50;;;;;;10274584;28;20601;-77
2023/08/01 20:42:11;;;;;;;1.20;1.10;;;21.30;40.30;;;;;;10263045;28;20232;-76
2023/08/01 20:47:14;;;;;;;1.30;1.20;;;21.20;40.50;;;;;;10274020;28;20675;-76
2023/08/01 20:52:17;;;;;;;1.20;1.20;;;21.20;40.20;;;;;;10269753;28;20391;-76
2023/08/01 20:57:22;;;;;;;1.17;1.10;;;21.20;40.30;;;;;;10272996;28;20242;-77
2023/08/01 21:02:25;;;;;;;0.90;0.90;;;21.20;40.80;;;;;;10261218;28;20234;-76
2023/08/01 21:07:29;;;;;;;1.20;1.10;;;21.20;40.40;;;;;;10268348;28;20263;-77
2023/08/01 21:12:33;;;;;;;1.27;1.10;;;21.20;40.40;;;;;;10280267;28;20236;-77
2023/08/01 21:17:37;;;;;;;1.30;1.20;;;21.20;40.80;;;;;;10275564;28;20315;-76
2023/08/01 21:22:41;;;;;;;0.87;0.87;;;21.20;40.30;;;;;;10274733;28;20316;-76
2023/08/01 21:27:45;;;;;;;1.40;1.30;;;21.20;40.40;;;;;;10277409;28;20232;-76
2023/08/01 21:32:48;;;;;;;0.90;0.90;;;21.20;40.70;;;;;;10280597;28;20354;-76
2023/08/01 21:37:51;;;;;;;0.97;0.97;;;21.20;40.50;;;;;;10272340;28;20240;-76
2023/08/01 21:42:56;;;;;;;1.17;1.00;;;21.30;40.60;;;;;;10277323;28;20232;-77
2023/08/01 21:48:00;;;;;;;1.67;1.57;;;21.30;41.10;;;;;;10282368;28;20247;-76
2023/08/01 21:53:03;;;;;;;1.00;1.00;;;21.30;40.90;;;;;;10285583;28;20236;-77
2023/08/01 21:58:08;;;;;;;1.17;1.07;;;21.20;40.90;;;;;;10282923;28;20295;-76
2023/08/01 22:03:11;;;;;;;1.13;1.00;;;21.20;41.30;;;;;;10276483;28;20231;-76
2023/08/01 22:08:15;;;;;;;2.73;1.23;;;21.20;41.00;;;;;;10295137;28;20231;-77
2023/08/01 22:13:19;;;;;;;1.03;0.93;;;21.20;41.20;;;;;;10274805;28;20227;-76
2023/08/01 22:18:24;;;;;;;1.40;1.30;;;21.10;41.70;;;;;;10281099;28;20704;-76
2023/08/01 22:23:27;;;;;;;1.20;1.10;;;21.10;41.50;;;;;;10275848;28;20254;-76
2023/08/01 22:28:32;;;;;;;1.10;1.10;;;21.10;41.60;;;;;;10278538;28;20238;-76
2023/08/01 22:33:36;;;;;;;1.20;1.10;;;21.10;41.90;;;;;;10280683;28;20241;-77
2023/08/01 22:38:39;;;;;;;1.70;1.50;;;21.20;41.50;;;;;;10275207;28;20242;-77
2023/08/01 22:43:44;;;;;;;1.00;1.00;;;21.30;41.60;;;;;;10277905;28;20239;-77
2023/08/01 22:48:47;;;;;;;1.20;1.13;;;21.40;41.90;;;;;;10271052;28;20235;-76
2023/08/01 22:53:52;;;;;;;1.30;1.20;;;21.50;41.40;;;;;;10268044;28;20250;-77
2023/08/01 22:58:56;;;;;;;1.50;1.40;;;21.50;41.50;;;;;;10276109;28;20997;-76
2023/08/01 23:04:00;;;;;;;1.60;1.50;;;21.60;41.40;;;;;;10261233;28;20311;-76
2023/08/01 23:09:04;;;;;;;1.47;1.30;;;21.50;40.90;;;;;;10279999;28;20230;-76
2023/08/01 23:14:09;;;;;;;1.60;1.50;;;21.50;40.80;;;;;;10279887;28;20249;-76
2023/08/01 23:19:12;;;;;;;1.50;1.23;;;21.50;41.40;;;;;;10278243;28;20601;-76
2023/08/01 23:24:15;;;;;;;1.40;1.30;;;21.50;41.10;;;;;;10275577;28;20223;-76
2023/08/01 23:29:20;;;;;;;1.77;1.20;;;21.50;41.00;;;;;;10268314;28;20810;-76
2023/08/01 23:34:23;;;;;;;2.30;1.37;;;21.60;41.40;;;;;;10278177;28;20322;-76
2023/08/01 23:39:27;;;;;;;1.23;1.00;;;21.60;41.00;;;;;;10272966;28;20235;-76
2023/08/01 23:44:32;;;;;;;1.20;1.20;;;21.60;41.20;;;;;;10275429;28;20928;-76
2023/08/01 23:49:35;;;;;;;1.30;1.20;;;21.70;41.20;;;;;;10260332;28;20242;-76
2023/08/01 23:54:38;;;;;;;1.43;1.30;;;21.70;41.10;;;;;;10277639;28;20232;-77
2023/08/01 23:59:43;;;;;;;1.50;1.40;;;21.70;40.90;;;;;;10268256;28;20232;-77
